Time;durP1;ratioP1;P1;durP2;ratioP2;P2;SDS_P1;SDS_P2;PMS_P1;PMS_P2;Temp;Humidity;BMP_temperature;BMP_pressure;BME280_temperature;BME280_humidity;BME280_pressure;Samples;Min_cycle;Max_cycle;Signal;HPM_P1;HPM_P2
2021/12/04 00:00:16;;;;;;;4.53;3.22;;;3.40;99.90;;;;;;5005895;28;20500;-82
2021/12/04 00:02:42;;;;;;;1.77;1.35;;;3.40;99.90;;;;;;4987330;28;20033;-80
2021/12/04 00:05:08;;;;;;;4.15;3.60;;;3.40;99.90;;;;;;4974125;28;20027;-82
2021/12/04 00:07:35;;;;;;;5.65;4.10;;;3.40;99.90;;;;;;4991420;28;20572;-82
2021/12/04 00:10:03;;;;;;;8.30;3.60;;;3.40;99.90;;;;;;4988256;28;20478;-81
2021/12/04 00:12:31;;;;;;;4.22;3.28;;;3.40;99.90;;;;;;5005985;28;20061;-82
2021/12/04 00:14:56;;;;;;;4.63;2.80;;;3.40;99.90;;;;;;4992895;28;20095;-83
2021/12/04 00:17:22;;;;;;;3.88;2.25;;;3.40;99.90;;;;;;4978345;28;20034;-82
2021/12/04 00:19:47;;;;;;;5.70;3.72;;;3.40;99.90;;;;;;4977673;28;20033;-82
2021/12/04 00:22:13;;;;;;;3.05;1.35;;;3.40;99.90;;;;;;4991105;28;20125;-83
2021/12/04 00:24:38;;;;;;;4.05;2.45;;;3.40;99.90;;;;;;5003018;28;20048;-82
2021/12/04 00:27:04;;;;;;;3.83;2.67;;;3.40;99.90;;;;;;5005873;28;20041;-82
2021/12/04 00:29:30;;;;;;;3.20;2.33;;;3.40;99.90;;;;;;5005179;28;20029;-82
2021/12/04 00:32:02;;;;;;;5.50;3.65;;;3.40;99.90;;;;;;5002401;28;20088;-82
2021/12/04 00:34:29;;;;;;;4.43;3.45;;;3.40;99.90;;;;;;4993025;28;20389;-81
2021/12/04 00:50:16;;;;;;;5.50;3.90;;;3.40;99.90;;;;;;5006299;28;20040;-82
2021/12/04 00:52:42;;;;;;;5.43;2.78;;;3.40;99.90;;;;;;4991260;28;20071;-81
2021/12/04 00:55:08;;;;;;;4.72;3.53;;;3.40;99.90;;;;;;5003882;28;20033;-82
2021/12/04 00:57:33;;;;;;;3.33;2.95;;;3.40;99.90;;;;;;4968797;28;20033;-82
2021/12/04 00:59:59;;;;;;;3.78;2.88;;;3.40;99.90;;;;;;4977470;28;20171;-82
2021/12/04 01:02:24;;;;;;;3.92;2.80;;;3.40;99.90;;;;;;5007538;28;20176;-82
2021/12/04 01:04:50;;;;;;;3.90;3.15;;;3.40;99.90;;;;;;4987058;28;20044;-82
2021/12/04 01:07:16;;;;;;;6.38;3.78;;;3.40;99.90;;;;;;4986544;28;20025;-83
2021/12/04 01:09:43;;;;;;;4.25;3.03;;;3.40;99.90;;;;;;5007025;28;20037;-80
2021/12/04 01:12:08;;;;;;;2.38;2.15;;;3.40;99.90;;;;;;4990821;28;20486;-82
2021/12/04 01:14:34;;;;;;;4.40;3.10;;;3.40;99.90;;;;;;4991928;28;20038;-82
2021/12/04 01:16:59;;;;;;;4.72;3.13;;;3.40;99.90;;;;;;4987072;28;20025;-82
2021/12/04 01:19:25;;;;;;;6.20;3.53;;;3.40;99.90;;;;;;4986619;28;20064;-82
2021/12/04 01:21:51;;;;;;;4.00;3.40;;;3.40;99.90;;;;;;4988217;28;20057;-82
2021/12/04 01:24:17;;;;;;;5.32;3.75;;;3.40;99.90;;;;;;4972759;28;20061;-81
2021/12/04 01:26:43;;;;;;;4.38;3.45;;;3.30;99.90;;;;;;4991659;28;20381;-82
2021/12/04 01:29:08;;;;;;;4.82;3.88;;;3.40;99.90;;;;;;4989256;28;20032;-83
2021/12/04 01:31:34;;;;;;;6.53;4.13;;;3.40;99.90;;;;;;4999809;28;20513;-83
2021/12/04 01:33:59;;;;;;;5.47;4.32;;;3.30;99.90;;;;;;4971629;28;20578;-83
2021/12/04 01:36:25;;;;;;;5.00;4.22;;;3.30;99.90;;;;;;4988011;28;20041;-82
2021/12/04 01:38:51;;;;;;;7.47;3.40;;;3.30;99.90;;;;;;4988402;28;20033;-83
2021/12/04 01:41:16;;;;;;;5.32;3.95;;;3.40;99.90;;;;;;5004623;28;20034;-83
2021/12/04 01:43:42;;;;;;;4.57;3.45;;;3.30;99.90;;;;;;4982955;28;20041;-81
2021/12/04 01:46:07;;;;;;;5.22;4.50;;;3.40;99.90;;;;;;4971696;28;20030;-82
2021/12/04 01:48:33;;;;;;;5.88;4.10;;;3.40;99.90;;;;;;4985372;28;20145;-82
2021/12/04 01:50:59;;;;;;;4.18;3.55;;;3.40;99.90;;;;;;4989169;28;20409;-83
2021/12/04 01:53:24;;;;;;;6.47;3.60;;;3.40;99.90;;;;;;4975447;28;20025;-83
2021/12/04 01:55:54;;;;;;;4.80;3.40;;;3.30;99.90;;;;;;4974293;28;20034;-82
2021/12/04 01:58:20;;;;;;;7.05;3.65;;;3.40;99.90;;;;;;5007086;28;20033;-82
2021/12/04 02:00:45;;;;;;;3.17;2.30;;;3.40;99.90;;;;;;4975400;28;20040;-82
2021/12/04 02:03:13;;;;;;;5.20;3.97;;;3.40;99.90;;;;;;4976685;28;20495;-82
2021/12/04 02:05:39;;;;;;;5.05;3.42;;;3.40;99.90;;;;;;4977841;28;20117;-82
2021/12/04 02:08:22;;;;;;;4.63;3.47;;;3.40;99.90;;;;;;4978825;28;20481;-82
2021/12/04 02:10:49;;;;;;;6.22;3.75;;;3.40;99.90;;;;;;4988144;28;20067;-83
2021/12/04 02:13:15;;;;;;;4.25;2.90;;;3.40;99.90;;;;;;4979254;28;20061;-83
2021/12/04 02:15:41;;;;;;;5.22;3.17;;;3.40;99.90;;;;;;4995614;28;20563;-83
2021/12/04 02:18:08;;;;;;;6.43;3.58;;;3.40;99.90;;;;;;4984642;28;20116;-84
2021/12/04 02:20:34;;;;;;;5.55;3.78;;;3.40;99.90;;;;;;4976115;28;20095;-84
2021/12/04 02:23:03;;;;;;;5.03;3.78;;;3.40;99.90;;;;;;4978326;28;20037;-84
2021/12/04 02:25:29;;;;;;;5.90;3.72;;;3.40;99.90;;;;;;4998336;28;20030;-84
2021/12/04 02:27:55;;;;;;;8.32;4.55;;;3.40;99.90;;;;;;4988200;28;20022;-84
2021/12/04 02:30:22;;;;;;;4.72;3.15;;;3.40;99.90;;;;;;5010036;28;20561;-84
2021/12/04 02:32:48;;;;;;;4.38;3.65;;;3.40;99.90;;;;;;4977952;28;20049;-83
2021/12/04 02:35:14;;;;;;;8.45;4.88;;;3.50;99.90;;;;;;4974377;28;20033;-84
2021/12/04 02:37:40;;;;;;;4.78;3.75;;;3.40;99.90;;;;;;4996050;28;20040;-84
2021/12/04 02:40:08;;;;;;;5.70;3.83;;;3.50;99.90;;;;;;5009440;28;20026;-83
2021/12/04 02:42:34;;;;;;;6.57;4.05;;;3.50;99.90;;;;;;5011515;28;20033;-84
2021/12/04 02:45:00;;;;;;;5.20;3.33;;;3.50;99.90;;;;;;5009846;28;20025;-83
2021/12/04 02:47:27;;;;;;;9.98;4.20;;;3.50;99.90;;;;;;5002727;28;20866;-83
2021/12/04 02:49:52;;;;;;;4.05;3.63;;;3.50;99.90;;;;;;4989586;28;20034;-84
2021/12/04 02:52:19;;;;;;;3.10;2.30;;;3.50;99.90;;;;;;5006236;28;20960;-84
2021/12/04 02:54:44;;;;;;;3.92;2.47;;;3.50;99.90;;;;;;5007213;28;20116;-84
2021/12/04 02:57:12;;;;;;;3.90;3.22;;;3.50;99.90;;;;;;4973858;28;20124;-83
2021/12/04 02:59:38;;;;;;;3.83;3.30;;;3.50;99.90;;;;;;4994551;28;20535;-84
2021/12/04 03:02:17;;;;;;;8.48;4.72;;;3.50;99.90;;;;;;4973175;28;20057;-84
2021/12/04 03:04:44;;;;;;;4.75;3.67;;;3.50;99.90;;;;;;4989165;28;20084;-84
2021/12/04 03:07:10;;;;;;;4.55;3.53;;;3.50;99.90;;;;;;4974566;28;20521;-84
2021/12/04 03:09:35;;;;;;;3.92;2.85;;;3.50;99.90;;;;;;4974768;28;20061;-84
2021/12/04 03:12:07;;;;;;;5.63;4.38;;;3.50;99.90;;;;;;5006429;28;20040;-84
2021/12/04 03:14:33;;;;;;;6.63;2.53;;;3.50;99.90;;;;;;5000933;28;20041;-84
2021/12/04 03:16:58;;;;;;;5.03;2.92;;;3.50;99.90;;;;;;4994762;28;20411;-84
2021/12/04 03:19:24;;;;;;;5.40;4.10;;;3.50;99.90;;;;;;5007093;28;20132;-84
2021/12/04 03:21:50;;;;;;;7.13;4.40;;;3.50;99.90;;;;;;4990779;28;20034;-84
2021/12/04 03:24:17;;;;;;;6.45;4.40;;;3.50;99.90;;;;;;4977475;28;20032;-84
2021/12/04 03:26:45;;;;;;;4.82;3.53;;;3.50;99.90;;;;;;4976706;28;20033;-85
2021/12/04 03:29:13;;;;;;;5.72;4.20;;;3.50;99.90;;;;;;4993943;28;20030;-84
2021/12/04 03:31:57;;;;;;;6.85;4.93;;;3.50;99.90;;;;;;5007191;28;20073;-84
2021/12/04 03:42:28;;;;;;;7.07;4.10;;;3.50;99.90;;;;;;4994614;28;20037;-84
2021/12/04 03:44:54;;;;;;;3.50;2.83;;;3.50;99.90;;;;;;4992633;28;20033;-84
2021/12/04 03:47:20;;;;;;;5.43;3.80;;;3.60;99.90;;;;;;4976167;28;20075;-84
2021/12/04 03:49:49;;;;;;;4.60;3.70;;;3.50;99.90;;;;;;4975728;28;20037;-84
2021/12/04 03:52:15;;;;;;;4.90;3.58;;;3.50;99.90;;;;;;5006391;28;20041;-84
2021/12/04 03:54:40;;;;;;;3.75;3.33;;;3.50;99.90;;;;;;4974451;28;20064;-82
2021/12/04 03:57:06;;;;;;;4.47;3.53;;;3.50;99.90;;;;;;4972998;28;20120;-84
2021/12/04 03:59:32;;;;;;;3.65;3.05;;;3.60;99.90;;;;;;4991969;28;20030;-83
2021/12/04 04:01:58;;;;;;;4.35;3.35;;;3.60;99.90;;;;;;4991131;28;20057;-84
2021/12/04 04:04:23;;;;;;;4.93;3.63;;;3.50;99.90;;;;;;5007366;28;20045;-83
2021/12/04 04:06:49;;;;;;;7.47;4.13;;;3.60;99.90;;;;;;5008146;28;20865;-84
2021/12/04 04:09:14;;;;;;;3.70;2.58;;;3.60;99.90;;;;;;4976042;28;20049;-84
2021/12/04 04:11:40;;;;;;;3.55;3.20;;;3.60;99.90;;;;;;4990114;28;20058;-84
2021/12/04 04:14:05;;;;;;;6.20;3.40;;;3.60;99.90;;;;;;4985993;28;20117;-84
2021/12/04 04:16:34;;;;;;;4.38;3.45;;;3.60;99.90;;;;;;4991114;28;20025;-83
2021/12/04 04:19:00;;;;;;;4.43;3.78;;;3.60;99.90;;;;;;4975880;28;20063;-81
2021/12/04 04:21:26;;;;;;;4.63;3.50;;;3.60;99.90;;;;;;4988196;28;20037;-80
2021/12/04 04:23:51;;;;;;;5.75;3.67;;;3.60;99.90;;;;;;4975963;28;20701;-80
2021/12/04 04:26:17;;;;;;;6.57;3.75;;;3.60;99.90;;;;;;4974623;28;20105;-80
2021/12/04 04:28:42;;;;;;;5.63;4.13;;;3.60;99.90;;;;;;5009013;28;20389;-81
2021/12/04 04:31:09;;;;;;;5.15;3.88;;;3.60;99.90;;;;;;4989884;28;20500;-81
2021/12/04 04:33:38;;;;;;;5.28;3.63;;;3.60;99.90;;;;;;4989958;28;20026;-81
2021/12/04 04:36:12;;;;;;;5.32;3.90;;;3.60;99.90;;;;;;4971899;28;20025;-81
2021/12/04 04:38:51;;;;;;;5.95;3.47;;;3.70;99.90;;;;;;5003745;28;20037;-81
2021/12/04 04:58:17;;;;;;;7.32;4.15;;;3.70;99.90;;;;;;4993650;28;20048;-81
2021/12/04 05:00:56;;;;;;;7.00;4.40;;;3.60;99.90;;;;;;4993806;28;20033;-81
2021/12/04 05:12:01;;;;;;;5.45;4.30;;;3.70;99.90;;;;;;4937275;29;20415;-80
2021/12/04 05:14:27;;;;;;;4.47;3.33;;;3.70;99.90;;;;;;4959684;28;20037;-80
2021/12/04 05:17:02;;;;;;;5.35;3.80;;;3.70;99.90;;;;;;4990513;28;20052;-80
2021/12/04 05:19:44;;;;;;;6.05;4.53;;;3.70;99.90;;;;;;5006821;28;20052;-81
2021/12/04 05:22:10;;;;;;;5.25;3.80;;;3.70;99.90;;;;;;4974337;28;20128;-80
2021/12/04 05:24:36;;;;;;;4.70;2.95;;;3.70;99.90;;;;;;4988032;28;20049;-81
2021/12/04 05:27:02;;;;;;;5.68;4.25;;;3.70;99.90;;;;;;4983781;28;20492;-80
2021/12/04 05:29:27;;;;;;;5.32;4.00;;;3.70;99.90;;;;;;5002947;28;20048;-80
2021/12/04 05:31:53;;;;;;;3.10;2.80;;;3.70;99.90;;;;;;4989691;28;20051;-80
2021/12/04 05:34:18;;;;;;;8.45;4.75;;;3.70;99.90;;;;;;4988722;28;20060;-80
2021/12/04 05:36:44;;;;;;;5.70;4.38;;;3.70;99.90;;;;;;5004539;28;20038;-80
2021/12/04 05:39:09;;;;;;;6.88;4.65;;;3.70;99.90;;;;;;4989967;28;20405;-80
2021/12/04 05:41:35;;;;;;;5.95;4.32;;;3.70;99.90;;;;;;4986275;28;20117;-81
2021/12/04 05:44:05;;;;;;;6.25;4.55;;;3.70;99.90;;;;;;4986643;28;20122;-80
2021/12/04 05:46:37;;;;;;;5.45;4.80;;;3.70;99.90;;;;;;4991969;28;20437;-80
2021/12/04 05:49:10;;;;;;;5.55;3.72;;;3.70;99.90;;;;;;4990929;28;20554;-81
2021/12/04 05:56:52;;;;;;;6.05;4.00;;;3.70;99.90;;;;;;4990136;28;20033;-81
2021/12/04 05:59:17;;;;;;;4.72;3.38;;;3.70;99.90;;;;;;4969023;28;20091;-81
2021/12/04 06:01:43;;;;;;;7.03;4.93;;;3.70;99.90;;;;;;4967798;28;20096;-81
2021/12/04 06:04:09;;;;;;;7.25;4.95;;;3.80;99.90;;;;;;4981380;28;20477;-80
2021/12/04 06:06:34;;;;;;;6.47;4.70;;;3.70;99.90;;;;;;4992398;28;20057;-81
2021/12/04 06:09:00;;;;;;;6.72;4.78;;;3.70;99.90;;;;;;4969491;28;20060;-79
2021/12/04 06:11:25;;;;;;;7.68;5.18;;;3.70;99.90;;;;;;4974381;28;20058;-80
2021/12/04 06:13:51;;;;;;;6.07;4.47;;;3.70;99.90;;;;;;4999736;28;20468;-80
2021/12/04 06:16:16;;;;;;;5.82;4.35;;;3.70;99.90;;;;;;4999463;28;20029;-81
2021/12/04 06:18:45;;;;;;;7.85;4.47;;;3.70;99.90;;;;;;4969151;28;20050;-81
2021/12/04 06:24:04;;;;;;;8.27;4.93;;;3.80;99.90;;;;;;4966942;28;20047;-81
2021/12/04 06:26:33;;;;;;;6.00;4.30;;;3.80;99.90;;;;;;4990693;28;20041;-81
2021/12/04 06:28:59;;;;;;;4.82;4.13;;;3.70;99.90;;;;;;4984508;28;20092;-81
2021/12/04 06:31:25;;;;;;;5.45;3.53;;;3.80;99.90;;;;;;4969994;28;20037;-81
2021/12/04 06:33:50;;;;;;;4.78;3.20;;;3.80;99.90;;;;;;4986656;28;20078;-80
2021/12/04 06:36:16;;;;;;;5.85;4.45;;;3.80;99.90;;;;;;4987822;28;20022;-80
2021/12/04 06:38:42;;;;;;;5.18;4.35;;;3.80;99.90;;;;;;4972781;28;20034;-81
2021/12/04 06:41:07;;;;;;;5.32;3.90;;;3.80;99.90;;;;;;4985807;28;20030;-81
2021/12/04 06:43:33;;;;;;;6.43;4.40;;;3.80;99.90;;;;;;4989099;28;20076;-81
2021/12/04 06:46:00;;;;;;;6.45;4.85;;;3.80;99.90;;;;;;4980330;28;20115;-81
2021/12/04 06:48:33;;;;;;;4.88;3.70;;;3.80;99.90;;;;;;4973820;28;20045;-80
2021/12/04 06:51:04;;;;;;;5.32;4.07;;;3.80;99.90;;;;;;4988211;28;20514;-81
2021/12/04 06:53:40;;;;;;;5.35;3.55;;;3.80;99.90;;;;;;4981379;28;20037;-80
2021/12/04 06:56:08;;;;;;;6.57;3.50;;;3.80;99.90;;;;;;4976837;28;20436;-81
2021/12/04 06:58:35;;;;;;;5.22;3.80;;;3.80;99.90;;;;;;4983599;28;20045;-81
2021/12/04 07:01:01;;;;;;;5.75;3.75;;;3.80;99.90;;;;;;4993229;28;20409;-81
2021/12/04 07:03:26;;;;;;;5.57;4.50;;;3.70;99.90;;;;;;4984008;28;20034;-80
2021/12/04 07:05:52;;;;;;;5.55;4.53;;;3.80;99.90;;;;;;4990865;28;20032;-81
2021/12/04 07:08:17;;;;;;;5.97;4.03;;;3.80;99.90;;;;;;4992909;28;20033;-81
2021/12/04 07:10:43;;;;;;;5.50;3.63;;;3.80;99.90;;;;;;4998947;28;20044;-80
2021/12/04 07:13:08;;;;;;;4.35;3.58;;;3.70;99.90;;;;;;4991979;28;20096;-80
2021/12/04 07:15:34;;;;;;;6.03;3.58;;;3.70;99.90;;;;;;4992900;28;20060;-80
2021/12/04 07:18:00;;;;;;;4.70;3.33;;;3.80;99.90;;;;;;4978703;28;20033;-80
2021/12/04 07:20:26;;;;;;;5.43;3.85;;;3.80;99.90;;;;;;4987628;28;20485;-81
2021/12/04 07:22:52;;;;;;;3.95;3.40;;;3.80;99.90;;;;;;5006289;28;20456;-80
2021/12/04 07:25:17;;;;;;;5.03;3.50;;;3.80;99.90;;;;;;4981416;28;20131;-80
2021/12/04 07:27:43;;;;;;;4.55;3.40;;;3.80;99.90;;;;;;4991314;28;20371;-81
2021/12/04 07:30:09;;;;;;;5.25;3.80;;;3.80;99.90;;;;;;4991329;28;20026;-80
2021/12/04 07:32:36;;;;;;;4.65;3.47;;;3.80;99.90;;;;;;4986845;28;20336;-81
2021/12/04 07:35:01;;;;;;;5.38;3.65;;;3.80;99.90;;;;;;4988079;28;20042;-81
2021/12/04 07:37:27;;;;;;;5.55;3.80;;;3.70;99.90;;;;;;4974155;28;20079;-81
2021/12/04 07:39:55;;;;;;;5.10;3.50;;;3.80;99.90;;;;;;4989192;28;20030;-81
2021/12/04 07:42:21;;;;;;;5.03;3.70;;;3.80;99.90;;;;;;4992634;28;20129;-81
2021/12/04 07:44:46;;;;;;;5.15;3.95;;;3.80;99.90;;;;;;5009652;28;20619;-81
2021/12/04 07:47:12;;;;;;;6.95;4.70;;;3.80;99.90;;;;;;4976285;28;20076;-79
2021/12/04 07:49:38;;;;;;;8.75;3.88;;;3.80;99.90;;;;;;5008039;28;20448;-78
2021/12/04 07:52:07;;;;;;;4.97;3.97;;;3.80;99.90;;;;;;4999219;28;20205;-79
2021/12/04 07:54:33;;;;;;;4.53;3.50;;;3.80;99.90;;;;;;4973959;28;20053;-79
2021/12/04 07:56:58;;;;;;;4.35;2.90;;;3.80;99.90;;;;;;4988799;28;20034;-79
2021/12/04 07:59:24;;;;;;;4.75;3.80;;;3.80;99.90;;;;;;4992006;28;20037;-79
2021/12/04 08:01:50;;;;;;;4.50;3.53;;;3.80;99.90;;;;;;4975610;28;20033;-79
2021/12/04 08:04:15;;;;;;;3.40;2.95;;;3.80;99.90;;;;;;5009050;28;20095;-79
2021/12/04 08:06:41;;;;;;;4.22;3.78;;;3.90;99.90;;;;;;4978530;28;20029;-79
2021/12/04 08:09:06;;;;;;;4.57;3.67;;;3.90;99.90;;;;;;4972103;28;20061;-79
2021/12/04 08:11:32;;;;;;;4.95;3.85;;;3.90;99.90;;;;;;4974535;28;20081;-79
2021/12/04 08:13:58;;;;;;;8.98;3.90;;;3.90;99.90;;;;;;5008854;28;20490;-79
2021/12/04 08:16:26;;;;;;;4.63;3.55;;;3.90;99.90;;;;;;4975585;28;20596;-79
2021/12/04 08:18:52;;;;;;;5.28;4.28;;;3.90;99.90;;;;;;4973171;28;20030;-79
2021/12/04 08:21:19;;;;;;;5.45;3.90;;;3.90;99.90;;;;;;4974712;28;20040;-79
2021/12/04 08:23:44;;;;;;;4.97;3.95;;;3.90;99.90;;;;;;4991717;28;20030;-79
2021/12/04 08:26:10;;;;;;;5.82;4.45;;;4.00;99.90;;;;;;4972647;28;20409;-79
2021/12/04 08:28:35;;;;;;;6.85;4.05;;;4.00;99.90;;;;;;5008997;28;20022;-79
2021/12/04 08:31:04;;;;;;;5.85;4.57;;;4.00;99.90;;;;;;4987626;28;20042;-79
2021/12/04 08:33:30;;;;;;;6.95;4.45;;;4.00;99.90;;;;;;5004699;28;20033;-79
2021/12/04 08:35:55;;;;;;;9.73;4.32;;;4.00;99.90;;;;;;4991106;28;20033;-79
2021/12/04 08:38:21;;;;;;;6.07;4.32;;;4.00;99.90;;;;;;4982005;28;20444;-79
2021/12/04 08:40:47;;;;;;;7.72;5.47;;;4.00;99.90;;;;;;4990656;28;20026;-79
2021/12/04 08:43:12;;;;;;;5.57;4.50;;;4.10;99.90;;;;;;4972357;28;20116;-79
2021/12/04 08:45:38;;;;;;;8.20;5.35;;;4.10;99.90;;;;;;5003825;28;20040;-79
2021/12/04 08:48:04;;;;;;;7.70;5.93;;;4.10;99.90;;;;;;4974268;28;20117;-79
2021/12/04 08:50:30;;;;;;;5.95;4.55;;;4.10;99.90;;;;;;5005308;28;20121;-79
2021/12/04 08:52:57;;;;;;;7.47;5.18;;;4.10;99.90;;;;;;5002643;28;20041;-79
2021/12/04 08:55:23;;;;;;;9.52;6.28;;;4.10;99.90;;;;;;4973231;28;20026;-83
2021/12/04 08:57:49;;;;;;;7.35;5.28;;;4.20;99.90;;;;;;4975275;28;20132;-83
2021/12/04 09:00:19;;;;;;;5.70;4.43;;;4.20;99.90;;;;;;4991532;28;20060;-83
2021/12/04 09:02:45;;;;;;;9.32;6.57;;;4.20;99.90;;;;;;4990618;28;20112;-82
2021/12/04 09:05:10;;;;;;;9.85;6.35;;;4.20;99.90;;;;;;4986733;28;20617;-83
2021/12/04 09:07:36;;;;;;;6.25;4.75;;;4.30;99.90;;;;;;4989775;28;20046;-84
2021/12/04 09:10:02;;;;;;;7.90;6.05;;;4.30;99.90;;;;;;5005651;28;20060;-84
2021/12/04 09:12:27;;;;;;;6.50;4.90;;;4.30;99.90;;;;;;4972569;28;20088;-83
2021/12/04 09:14:53;;;;;;;7.45;5.22;;;4.30;99.90;;;;;;4963307;28;20049;-84
2021/12/04 09:17:20;;;;;;;9.05;5.80;;;4.40;99.90;;;;;;4974585;28;20143;-83
2021/12/04 09:19:46;;;;;;;9.93;7.07;;;4.40;99.90;;;;;;4988138;28;20065;-82
2021/12/04 09:22:25;;;;;;;6.82;4.97;;;4.40;99.90;;;;;;4973682;28;20065;-83
2021/12/04 09:24:54;;;;;;;12.35;7.38;;;4.40;99.90;;;;;;5008245;28;20488;-83
2021/12/04 10:05:10;;;;;;;7.65;6.13;;;4.70;99.90;;;;;;4992119;28;20048;-82
2021/12/04 10:21:12;;;;;;;8.30;5.75;;;5.00;99.90;;;;;;5007470;28;20490;-83
2021/12/04 10:34:32;;;;;;;8.10;5.85;;;5.20;99.90;;;;;;5008937;28;19961;-83
2021/12/04 10:37:08;;;;;;;9.73;5.70;;;5.30;99.90;;;;;;4993952;28;20116;-82
2021/12/04 10:39:34;;;;;;;6.47;5.40;;;5.20;99.90;;;;;;4992519;28;20044;-83
2021/12/04 10:42:03;;;;;;;8.70;5.28;;;5.30;99.90;;;;;;4990629;28;20030;-83
2021/12/04 10:44:28;;;;;;;8.00;5.47;;;5.30;99.90;;;;;;5004945;28;20482;-83
2021/12/04 10:47:10;;;;;;;8.48;5.93;;;5.30;99.90;;;;;;4978083;28;20041;-83
2021/12/04 10:49:46;;;;;;;7.20;5.47;;;5.40;99.90;;;;;;5007383;28;20057;-83
2021/12/04 10:52:29;;;;;;;6.15;5.03;;;5.30;99.90;;;;;;4978740;28;20486;-82
2021/12/04 10:55:27;;;;;;;7.57;4.28;;;5.30;99.90;;;;;;4983217;28;20083;-83
2021/12/04 10:58:32;;;;;;;6.75;5.75;;;5.40;99.90;;;;;;5013896;28;20029;-82
2021/12/04 11:01:25;;;;;;;6.60;5.45;;;5.40;99.90;;;;;;5007540;28;20065;-83
2021/12/04 11:04:10;;;;;;;9.05;6.25;;;5.50;99.90;;;;;;4967297;28;20037;-83
2021/12/04 11:44:44;;;;;;;5.05;4.22;;;6.00;99.90;;;;;;4992343;28;20059;-83
2021/12/04 11:47:10;;;;;;;4.80;4.07;;;5.90;99.90;;;;;;4977732;28;20413;-83
2021/12/04 11:49:36;;;;;;;4.97;3.60;;;5.90;99.90;;;;;;4976586;28;20049;-82
2021/12/04 11:52:07;;;;;;;5.05;4.43;;;5.80;99.90;;;;;;4989978;28;20026;-83
2021/12/04 11:54:44;;;;;;;5.65;4.82;;;5.80;99.90;;;;;;4990486;28;20037;-82
2021/12/04 11:57:10;;;;;;;6.00;4.78;;;5.80;99.90;;;;;;5005677;28;20033;-82
2021/12/04 11:59:37;;;;;;;5.03;4.43;;;5.90;99.90;;;;;;4975393;28;20049;-83
2021/12/04 12:02:04;;;;;;;5.15;4.38;;;5.90;99.90;;;;;;4990561;28;20075;-83
2021/12/04 12:04:40;;;;;;;6.65;5.15;;;6.00;99.90;;;;;;4977062;28;20031;-83
2021/12/04 12:07:31;;;;;;;7.00;4.45;;;6.00;99.90;;;;;;4645398;28;10000152;-82
2021/12/04 12:10:08;;;;;;;5.00;4.30;;;6.10;99.90;;;;;;5006663;28;20460;-82
2021/12/04 12:12:36;;;;;;;4.55;3.58;;;6.20;99.90;;;;;;5002427;28;20073;-83
2021/12/04 12:15:05;;;;;;;5.50;3.88;;;6.20;99.90;;;;;;4990546;28;20115;-83
2021/12/04 12:17:36;;;;;;;4.68;3.85;;;6.10;99.90;;;;;;4964875;28;20038;-83
2021/12/04 12:20:04;;;;;;;4.55;3.67;;;6.00;99.90;;;;;;4974117;28;20084;-82
2021/12/04 12:25:35;;;;;;;5.30;4.05;;;6.00;99.90;;;;;;5006151;28;20034;-82
2021/12/04 12:36:14;;;;;;;6.15;3.85;;;6.10;99.90;;;;;;4982423;28;20022;-82
2021/12/04 12:38:45;;;;;;;4.28;3.67;;;6.20;99.90;;;;;;4974634;28;20057;-83
2021/12/04 12:41:16;;;;;;;5.30;3.95;;;6.30;99.90;;;;;;4981178;28;20134;-82
2021/12/04 12:43:47;;;;;;;4.75;3.80;;;6.30;99.90;;;;;;5025358;28;20130;-82
2021/12/04 12:46:12;;;;;;;4.80;3.70;;;6.10;99.90;;;;;;4997591;28;20025;-81
2021/12/04 12:49:02;;;;;;;5.35;4.03;;;6.20;99.90;;;;;;4977465;28;20389;-83
2021/12/04 12:51:35;;;;;;;4.25;3.78;;;6.30;99.90;;;;;;5010268;28;20033;-81
2021/12/04 12:54:03;;;;;;;4.47;3.53;;;6.40;99.90;;;;;;4987807;28;20033;-83
2021/12/04 12:56:30;;;;;;;4.72;4.22;;;6.50;99.90;;;;;;4989900;28;20057;-83
2021/12/04 12:59:06;;;;;;;5.63;4.72;;;6.50;99.90;;;;;;5005144;28;20101;-82
2021/12/04 13:13:30;;;;;;;4.80;3.60;;;6.70;99.90;;;;;;4985170;28;20072;-83
2021/12/04 13:16:01;;;;;;;4.85;3.58;;;6.70;99.90;;;;;;4986189;28;20701;-83
2021/12/04 13:18:27;;;;;;;5.25;3.90;;;6.70;99.90;;;;;;5008557;28;20030;-83
2021/12/04 13:20:53;;;;;;;4.05;3.53;;;7.00;99.90;;;;;;5002412;28;20573;-82
2021/12/04 13:23:22;;;;;;;4.15;3.33;;;7.10;99.90;;;;;;4992098;28;20040;-84
2021/12/04 13:25:49;;;;;;;5.78;3.80;;;7.10;99.90;;;;;;5001662;28;20041;-83
2021/12/04 13:28:23;;;;;;;5.28;4.30;;;7.00;99.90;;;;;;4986196;28;20036;-83
2021/12/04 13:30:48;;;;;;;4.60;3.97;;;7.00;99.90;;;;;;5003819;28;20030;-83
2021/12/04 13:33:14;;;;;;;3.60;3.08;;;7.00;99.90;;;;;;4975370;28;20037;-84
2021/12/04 13:35:45;;;;;;;4.43;3.83;;;7.00;99.90;;;;;;4970463;28;20030;-83
2021/12/04 13:38:10;;;;;;;4.45;3.65;;;6.90;99.90;;;;;;4961105;28;20029;-84
2021/12/04 13:40:36;;;;;;;3.67;2.53;;;6.70;99.90;;;;;;4974588;28;20076;-84
2021/12/04 13:43:01;;;;;;;5.03;3.70;;;6.70;99.90;;;;;;4991266;28;20088;-83
2021/12/04 13:45:27;;;;;;;4.53;3.65;;;6.50;99.90;;;;;;5003220;28;20037;-82
2021/12/04 13:47:54;;;;;;;4.57;2.88;;;6.40;99.90;;;;;;5005919;28;20036;-83
2021/12/04 13:52:58;;;;;;;4.28;3.63;;;6.50;99.90;;;;;;5006238;28;20044;-84
2021/12/04 13:55:23;;;;;;;3.72;3.05;;;6.50;99.90;;;;;;5002489;28;20099;-83
2021/12/04 13:57:50;;;;;;;4.63;3.65;;;6.40;99.90;;;;;;4985568;28;20034;-83
2021/12/04 14:00:17;;;;;;;8.50;4.32;;;6.40;99.90;;;;;;4972608;28;20116;-83
2021/12/04 14:02:42;;;;;;;4.75;3.97;;;6.30;99.90;;;;;;4975672;28;20509;-83
2021/12/04 14:05:11;;;;;;;5.97;4.80;;;6.30;99.90;;;;;;5001226;28;20053;-84
2021/12/04 14:07:36;;;;;;;7.80;4.68;;;6.20;99.90;;;;;;4988963;28;20079;-83
2021/12/04 14:10:19;;;;;;;6.80;4.75;;;6.20;99.90;;;;;;4988888;28;20025;-83
2021/12/04 14:12:45;;;;;;;6.93;4.63;;;6.20;99.90;;;;;;4983358;28;20036;-83
2021/12/04 14:15:11;;;;;;;5.10;4.00;;;6.10;99.90;;;;;;4973928;28;20026;-83
2021/12/04 14:17:37;;;;;;;6.88;5.03;;;6.00;99.90;;;;;;4972748;28;20042;-83
2021/12/04 14:20:03;;;;;;;6.60;5.03;;;6.00;99.90;;;;;;4987309;28;20084;-83
2021/12/04 14:22:30;;;;;;;4.70;3.65;;;6.00;99.90;;;;;;4974417;28;20056;-83
2021/12/04 14:24:59;;;;;;;8.65;4.63;;;5.90;99.90;;;;;;5006662;28;20029;-84
2021/12/04 14:27:26;;;;;;;5.25;3.40;;;5.90;99.90;;;;;;4991686;28;20095;-83
2021/12/04 14:30:19;;;;;;;6.30;3.22;;;5.80;99.90;;;;;;4989061;28;20033;-83
2021/12/04 14:32:52;;;;;;;5.90;3.83;;;5.80;99.90;;;;;;4992043;28;20041;-83
2021/12/04 14:35:21;;;;;;;4.50;3.75;;;5.70;99.90;;;;;;5005293;28;20029;-83
2021/12/04 14:37:51;;;;;;;5.32;4.43;;;5.70;99.90;;;;;;4969999;28;20631;-83
2021/12/04 14:40:23;;;;;;;5.63;4.32;;;5.60;99.90;;;;;;4986441;28;20034;-83
2021/12/04 14:42:50;;;;;;;7.28;3.65;;;5.60;99.90;;;;;;4970979;28;20038;-83
2021/12/04 14:45:19;;;;;;;9.20;5.15;;;5.60;99.90;;;;;;4989612;28;20038;-83
2021/12/04 14:47:47;;;;;;;7.00;4.50;;;5.60;99.90;;;;;;4983805;28;20037;-83
2021/12/04 14:50:14;;;;;;;5.72;4.63;;;5.50;99.90;;;;;;4988592;28;20037;-83
2021/12/04 14:52:40;;;;;;;10.85;4.95;;;5.50;99.90;;;;;;5006565;28;20041;-84
2021/12/04 14:55:19;;;;;;;7.80;5.43;;;5.50;99.90;;;;;;4975125;28;20519;-84
2021/12/04 14:57:44;;;;;;;6.32;4.53;;;5.40;99.90;;;;;;4989982;28;20034;-83
2021/12/04 15:00:15;;;;;;;4.75;3.20;;;5.40;99.90;;;;;;4972243;28;20026;-83
2021/12/04 15:02:40;;;;;;;3.22;2.28;;;5.30;99.90;;;;;;4989119;28;20143;-84
2021/12/04 15:05:06;;;;;;;5.75;3.83;;;5.30;99.90;;;;;;4982139;28;20117;-83
2021/12/04 15:07:33;;;;;;;4.60;3.90;;;5.30;99.90;;;;;;4988022;28;20118;-83
2021/12/04 15:10:02;;;;;;;4.40;2.30;;;5.30;99.90;;;;;;4977631;28;20033;-83
2021/12/04 15:12:28;;;;;;;3.80;2.25;;;5.20;99.90;;;;;;4973949;28;20536;-83
2021/12/04 15:15:12;;;;;;;5.05;3.30;;;5.20;99.90;;;;;;5000654;28;20045;-84
2021/12/04 15:17:41;;;;;;;3.25;2.45;;;5.10;99.90;;;;;;4991492;28;20029;-83
2021/12/04 15:20:16;;;;;;;4.70;2.45;;;5.10;99.90;;;;;;4991343;28;20052;-83
2021/12/04 15:22:44;;;;;;;3.80;3.33;;;5.10;99.90;;;;;;4973270;28;20486;-83
2021/12/04 15:25:17;;;;;;;5.88;3.08;;;5.10;99.90;;;;;;4990019;28;20065;-84
2021/12/04 15:27:43;;;;;;;5.97;4.63;;;5.10;99.90;;;;;;5002976;28;20053;-83
2021/12/04 15:30:11;;;;;;;5.78;3.92;;;5.00;99.90;;;;;;4993926;28;20030;-83
2021/12/04 15:32:38;;;;;;;4.60;3.67;;;5.00;99.90;;;;;;4977314;28;20044;-83
2021/12/04 15:38:00;;;;;;;6.50;3.83;;;4.90;99.90;;;;;;5025149;28;20033;-83
2021/12/04 15:40:31;;;;;;;6.82;4.63;;;4.90;99.90;;;;;;4981413;28;20610;-83
2021/12/04 15:43:10;;;;;;;5.82;4.50;;;4.90;99.90;;;;;;5006948;28;20048;-84
2021/12/04 15:45:51;;;;;;;4.60;3.53;;;4.90;99.90;;;;;;5004337;28;20045;-85
2021/12/04 15:53:51;;;;;;;5.88;3.92;;;4.90;99.90;;;;;;4990976;28;20040;-83
2021/12/04 15:56:47;;;;;;;4.68;3.22;;;4.90;99.90;;;;;;4991799;28;20026;-84
2021/12/04 15:59:20;;;;;;;6.30;3.58;;;4.80;99.90;;;;;;4980710;28;20087;-84
2021/12/04 16:01:46;;;;;;;6.40;3.92;;;4.90;99.90;;;;;;4984235;28;20023;-84
2021/12/04 16:04:22;;;;;;;5.28;3.28;;;4.80;99.90;;;;;;4981705;28;20045;-84
2021/12/04 16:06:48;;;;;;;4.22;3.70;;;4.80;99.90;;;;;;4992216;28;20029;-84
2021/12/04 16:09:14;;;;;;;4.75;2.90;;;4.80;99.90;;;;;;4988700;28;20375;-84
2021/12/04 16:11:40;;;;;;;5.43;3.72;;;4.80;99.90;;;;;;5009689;28;20490;-84